Time;durP1;ratioP1;P1;durP2;ratioP2;P2;SDS_P1;SDS_P2;PMS_P1;PMS_P2;Temp;Humidity;BMP_temperature;BMP_pressure;BME280_temperature;BME280_humidity;BME280_pressure;Samples;Min_cycle;Max_cycle;Signal;HPM_P1;HPM_P2
2023/10/13 00:00:25;;;;;;;;;;;;;;;14.55;96.68;100984.38;4218293;28;20014;-72
2023/10/13 00:02:29;;;;;;;;;;;;;;;14.55;96.66;100980.84;4219610;28;19928;-72
2023/10/13 00:04:32;;;;;;;;;;;;;;;14.53;96.78;100974.75;4218725;28;20010;-72
2023/10/13 00:06:34;;;;;;;;;;;;;;;14.51;96.73;100977.66;4217613;28;20006;-72
2023/10/13 00:08:39;;;;;;;;;;;;;;;14.53;96.69;100977.47;4219032;28;20440;-72
2023/10/13 00:10:41;;;;;;;;;;;;;;;14.53;96.79;100975.59;4218856;28;20015;-72
2023/10/13 00:12:49;;;;;;;;;;;;;;;14.54;97.03;100977.25;4219745;28;20018;-72
2023/10/13 00:14:53;;;;;;;;;;;;;;;14.53;96.76;100972.88;4219507;28;20447;-72
2023/10/13 00:17:04;;;;;;;;;;;;;;;14.53;96.33;100977.47;4214954;28;20014;-72
2023/10/13 00:19:13;;;;;;;;;;;;;;;14.54;96.52;100973.72;4219741;28;20051;-72
2023/10/13 00:21:19;;;;;;;;;;;;;;;14.55;96.52;100965.38;4219373;28;20010;-72
2023/10/13 00:23:21;;;;;;;;;;;;;;;14.56;96.23;100963.47;4219174;28;20022;-72
2023/10/13 00:25:27;;;;;;;;;;;;;;;14.56;96.05;100974.34;4219120;28;20002;-72
2023/10/13 00:27:30;;;;;;;;;;;;;;;14.52;96.61;100957.59;4218583;28;20018;-71
2023/10/13 00:29:37;;;;;;;;;;;;;;;14.51;96.69;100955.91;4218548;28;20025;-72
2023/10/13 00:31:42;;;;;;;;;;;;;;;14.51;96.59;100958.63;4222102;28;20018;-73
2023/10/13 00:33:46;;;;;;;;;;;;;;;14.55;96.58;100957.22;4219257;28;20011;-73
2023/10/13 00:35:51;;;;;;;;;;;;;;;14.54;96.33;100955.53;4216302;28;20496;-72
2023/10/13 00:37:56;;;;;;;;;;;;;;;14.55;96.52;100956.38;4207215;28;20039;-73
2023/10/13 00:40:08;;;;;;;;;;;;;;;14.56;96.51;100949.88;4219290;28;20019;-72
2023/10/13 00:42:20;;;;;;;;;;;;;;;14.56;96.21;100952.59;4220620;28;20047;-73
2023/10/13 00:44:28;;;;;;;;;;;;;;;14.52;96.40;100962.22;4218579;28;20038;-72
2023/10/13 00:46:33;;;;;;;;;;;;;;;14.51;96.83;100960.53;4221885;28;20067;-72
2023/10/13 00:48:51;;;;;;;;;;;;;;;14.52;96.83;100948.63;4222647;28;20022;-72
2023/10/13 00:50:56;;;;;;;;;;;;;;;14.56;96.81;100945.31;4221530;28;20015;-72
2023/10/13 00:53:00;;;;;;;;;;;;;;;14.57;96.56;100948.88;4221193;28;20027;-71
2023/10/13 00:55:01;;;;;;;;;;;;;;;14.55;96.35;100946.34;4222080;28;20425;-72
2023/10/13 00:57:11;;;;;;;;;;;;;;;14.55;96.67;100940.91;4218865;28;19935;-72
2023/10/13 00:59:13;;;;;;;;;;;;;;;14.58;96.81;100939.69;4222170;28;20019;-71
2023/10/13 01:01:22;;;;;;;;;;;;;;;14.56;96.67;100948.03;4218975;28;20042;-72
2023/10/13 01:03:26;;;;;;;;;;;;;;;14.58;96.71;100939.69;4219908;28;20027;-72
2023/10/13 01:05:31;;;;;;;;;;;;;;;14.57;96.48;100944.25;4222403;28;20019;-72
2023/10/13 01:07:32;;;;;;;;;;;;;;;14.56;96.49;100942.59;4218394;28;20039;-74
2023/10/13 01:09:42;;;;;;;;;;;;;;;14.54;96.96;100939.22;4219917;28;19971;-72
2023/10/13 01:11:48;;;;;;;;;;;;;;;14.54;96.73;100944.66;4202921;28;20486;-72
2023/10/13 01:13:51;;;;;;;;;;;;;;;14.57;96.83;100940.72;4221264;28;20374;-73
2023/10/13 01:15:52;;;;;;;;;;;;;;;14.58;96.61;100940.50;4222690;28;20019;-72
2023/10/13 01:18:10;;;;;;;;;;;;;;;14.57;96.61;100944.25;4220845;28;20489;-73
2023/10/13 01:20:21;;;;;;;;;;;;;;;14.58;96.60;100939.69;4219958;28;20717;-72
2023/10/13 01:22:23;;;;;;;;;;;;;;;14.58;96.66;100936.97;4220772;28;20011;-73
2023/10/13 01:24:31;;;;;;;;;;;;;;;14.62;96.43;100934.72;4222701;28;20461;-72
2023/10/13 01:26:38;;;;;;;;;;;;;;;14.58;96.70;100945.94;4204372;28;20015;-72
2023/10/13 01:28:46;;;;;;;;;;;;;;;14.57;96.83;100940.72;4223710;28;20016;-72
2023/10/13 01:30:50;;;;;;;;;;;;;;;14.56;96.69;100942.59;4221904;28;20024;-73
2023/10/13 01:32:51;;;;;;;;;;;;;;;14.58;96.87;100939.69;4208788;28;20396;-72
2023/10/13 01:34:55;;;;;;;;;;;;;;;14.58;96.56;100945.13;4206311;28;20028;-72
2023/10/13 01:37:05;;;;;;;;;;;;;;;14.58;96.66;100936.97;4232531;27;20063;-73
2023/10/13 01:39:16;;;;;;;;;;;;;;;14.56;96.87;100947.16;4219012;28;20413;-72
2023/10/13 01:41:21;;;;;;;;;;;;;;;14.54;97.07;100954.69;4220634;28;20366;-73
2023/10/13 01:43:23;;;;;;;;;;;;;;;14.53;96.99;100947.56;4222671;28;20055;-73
2023/10/13 01:45:28;;;;;;;;;;;;;;;14.52;97.27;100951.34;4223542;28;20403;-73
2023/10/13 01:47:31;;;;;;;;;;;;;;;14.54;97.63;100949.25;4220753;28;20022;-73
2023/10/13 01:49:41;;;;;;;;;;;;;;;14.51;97.58;100949.66;4220500;28;20031;-73
2023/10/13 01:51:47;;;;;;;;;;;;;;;14.52;97.72;100948.63;4224772;28;20370;-73
2023/10/13 01:53:56;;;;;;;;;;;;;;;14.51;97.86;100939.59;4220247;28;20014;-73
2023/10/13 01:55:58;;;;;;;;;;;;;;;14.51;97.88;100952.38;4222478;28;20913;-73
2023/10/13 01:58:00;;;;;;;;;;;;;;;14.50;97.87;100939.81;4219093;28;20015;-72
2023/10/13 02:00:15;;;;;;;;;;;;;;;14.48;98.17;100947.31;4203170;28;19924;-71
2023/10/13 02:02:28;;;;;;;;;;;;;;;14.49;98.03;100940.88;4235297;27;20046;-72
2023/10/13 02:04:34;;;;;;;;;;;;;;;14.48;98.11;100940.03;4235147;27;20019;-72
2023/10/13 02:06:36;;;;;;;;;;;;;;;14.47;98.48;100934.81;4236665;27;20019;-72
2023/10/13 02:08:43;;;;;;;;;;;;;;;14.48;98.61;100934.59;4221655;28;19924;-72
2023/10/13 02:10:46;;;;;;;;;;;;;;;14.50;98.62;100932.50;4205042;28;20380;-72
2023/10/13 02:12:48;;;;;;;;;;;;;;;14.51;98.66;100930.63;4220277;28;20015;-71
2023/10/13 02:14:52;;;;;;;;;;;;;;;14.46;98.63;100919.53;4203463;28;19964;-72
2023/10/13 02:17:12;;;;;;;;;;;;;;;14.45;99.25;100921.41;4231819;27;19924;-72
2023/10/13 02:19:19;;;;;;;;;;;;;;;14.46;99.17;100920.34;4219997;28;20360;-73
2023/10/13 02:21:21;;;;;;;;;;;;;;;14.47;99.40;100908.44;4218650;28;20417;-73
2023/10/13 02:23:22;;;;;;;;;;;;;;;14.49;98.96;100908.25;4220805;28;20046;-72
2023/10/13 02:25:39;;;;;;;;;;;;;;;14.52;99.12;100903.25;4219628;28;20011;-72
2023/10/13 02:27:48;;;;;;;;;;;;;;;14.54;99.20;100908.50;4221743;28;20019;-74
2023/10/13 02:29:54;;;;;;;;;;;;;;;14.52;99.42;100910.56;4237280;27;20420;-73
2023/10/13 02:31:57;;;;;;;;;;;;;;;14.53;99.08;100899.50;4221891;28;19924;-73
2023/10/13 02:34:00;;;;;;;;;;;;;;;14.52;99.19;100899.72;4217779;28;20015;-72
2023/10/13 02:36:04;;;;;;;;;;;;;;;14.52;99.03;100892.38;4229143;27;19932;-73
2023/10/13 02:38:10;;;;;;;;;;;;;;;14.51;99.37;100889.84;4220106;28;20437;-73
2023/10/13 02:40:12;;;;;;;;;;;;;;;14.51;99.55;100879.00;4217716;28;20026;-72
2023/10/13 02:42:23;;;;;;;;;;;;;;;14.52;99.46;100873.34;4219881;28;20018;-73
2023/10/13 02:44:28;;;;;;;;;;;;;;;14.52;99.50;100881.50;4220808;28;20043;-72
2023/10/13 02:46:30;;;;;;;;;;;;;;;14.54;99.48;100882.13;4220446;28;20011;-73
2023/10/13 02:48:45;;;;;;;;;;;;;;;14.52;99.72;100888.84;4220933;28;20010;-72
2023/10/13 02:50:54;;;;;;;;;;;;;;;14.52;99.78;100886.13;4218462;28;20011;-73
2023/10/13 02:52:56;;;;;;;;;;;;;;;14.51;100.00;100887.16;4218900;28;20042;-72
2023/10/13 02:54:57;;;;;;;;;;;;;;;14.50;100.00;100885.44;4218204;28;20006;-72
2023/10/13 02:57:03;;;;;;;;;;;;;;;14.50;100.00;100880.88;4212621;28;20525;-72
2023/10/13 02:59:05;;;;;;;;;;;;;;;14.50;100.00;100880.03;4219060;28;20020;-72
2023/10/13 03:01:16;;;;;;;;;;;;;;;14.48;100.00;100882.97;4218817;28;20023;-72
2023/10/13 03:03:19;;;;;;;;;;;;;;;14.51;100.00;100884.44;4219443;28;19967;-73
2023/10/13 03:05:22;;;;;;;;;;;;;;;14.52;100.00;100881.50;4219497;28;20681;-73
2023/10/13 03:07:23;;;;;;;;;;;;;;;14.52;100.00;100875.25;4219754;28;20039;-73
2023/10/13 03:09:26;;;;;;;;;;;;;;;14.51;100.00;100870.84;4218414;28;20018;-73
2023/10/13 03:11:32;;;;;;;;;;;;;;;14.52;100.00;100864.38;4218830;28;20015;-73
2023/10/13 03:13:35;;;;;;;;;;;;;;;14.52;100.00;100854.34;4217795;28;20105;-73
2023/10/13 03:15:36;;;;;;;;;;;;;;;14.52;100.00;100859.78;4218464;28;20034;-73
2023/10/13 03:17:43;;;;;;;;;;;;;;;14.53;100.00;100860.59;4219976;28;20367;-73
2023/10/13 03:19:49;;;;;;;;;;;;;;;14.55;100.00;100853.09;4201716;28;20010;-73
2023/10/13 03:21:57;;;;;;;;;;;;;;;14.54;100.00;100852.25;4219274;28;20014;-73
2023/10/13 03:24:04;;;;;;;;;;;;;;;14.52;100.00;100848.91;4217097;28;20050;-73
2023/10/13 03:26:10;;;;;;;;;;;;;;;14.54;100.00;100840.53;4218368;28;20011;-73
2023/10/13 03:28:13;;;;;;;;;;;;;;;14.54;100.00;100851.41;4216901;28;20040;-73
2023/10/13 03:30:15;;;;;;;;;;;;;;;14.54;100.00;100835.09;4201534;28;20038;-73
2023/10/13 03:32:18;;;;;;;;;;;;;;;14.58;100.00;100839.13;4218686;28;20015;-73
2023/10/13 03:34:20;;;;;;;;;;;;;;;14.56;100.00;100831.16;4219727;28;20026;-73
2023/10/13 03:36:56;;;;;;;;;;;;;;;14.57;100.00;100821.94;4218906;28;20035;-73
2023/10/13 03:38:54;;;;;;;;;;;;;;;14.60;100.00;100807.97;4217340;28;20019;-73
2023/10/13 03:40:56;;;;;;;;;;;;;;;14.62;100.00;100813.22;4220458;28;20372;-73
2023/10/13 03:43:04;;;;;;;;;;;;;;;14.59;100.00;100811.72;4219232;28;20016;-73
2023/10/13 03:45:10;;;;;;;;;;;;;;;14.62;100.00;100810.50;4220247;28;19970;-73
2023/10/13 03:47:19;;;;;;;;;;;;;;;14.64;100.00;100799.44;4218990;28;20003;-73
2023/10/13 03:49:22;;;;;;;;;;;;;;;14.61;100.00;100797.97;4219861;28;20377;-73
2023/10/13 03:51:30;;;;;;;;;;;;;;;14.60;100.00;100796.28;4218169;28;20449;-73
2023/10/13 03:53:35;;;;;;;;;;;;;;;14.62;100.00;100802.34;4219089;28;20062;-73
2023/10/13 03:55:37;;;;;;;;;;;;;;;14.62;100.00;100804.25;4219261;28;20359;-73
2023/10/13 03:57:39;;;;;;;;;;;;;;;14.62;100.00;100817.81;4219171;28;20019;-73
2023/10/13 03:59:46;;;;;;;;;;;;;;;14.62;100.00;100810.50;4219362;28;20010;-73
2023/10/13 04:01:58;;;;;;;;;;;;;;;14.62;100.00;100812.38;4217746;28;20010;-73
2023/10/13 04:04:08;;;;;;;;;;;;;;;14.60;100.00;100801.72;4218063;28;19967;-73
2023/10/13 04:06:16;;;;;;;;;;;;;;;14.62;100.00;100805.06;4222418;28;20473;-73
2023/10/13 04:15:36;;;;;;;;;;;;;;;14.62;100.00;100805.06;4220522;28;20007;-73
2023/10/13 04:17:43;;;;;;;;;;;;;;;14.60;100.00;100799.00;4222369;28;20441;-74
2023/10/13 04:22:14;;;;;;;;;;;;;;;14.58;100.00;100799.16;4220114;28;20501;-73
2023/10/13 04:24:39;;;;;;;;;;;;;;;14.60;100.00;100791.69;4220997;28;20018;-73
2023/10/13 04:26:42;;;;;;;;;;;;;;;14.63;100.00;100792.34;4220244;28;20031;-73
2023/10/13 04:28:52;;;;;;;;;;;;;;;14.65;100.00;100777.47;4222250;28;20055;-73
2023/10/13 04:30:59;;;;;;;;;;;;;;;14.64;100.00;100783.13;4222240;28;20043;-73
2023/10/13 04:33:35;;;;;;;;;;;;;;;14.62;100.00;100777.88;4222185;28;20026;-73
2023/10/13 04:35:47;;;;;;;;;;;;;;;14.64;100.00;100775.81;4222455;28;19930;-73
2023/10/13 04:37:50;;;;;;;;;;;;;;;14.64;100.00;100780.41;4221854;28;20015;-73
2023/10/13 04:39:57;;;;;;;;;;;;;;;14.64;100.00;100781.25;4220525;28;20034;-73
2023/10/13 04:42:13;;;;;;;;;;;;;;;14.63;100.00;100770.59;4222153;28;20429;-73
2023/10/13 04:47:07;;;;;;;;;;;;;;;14.63;100.00;100763.25;4222817;28;20027;-74
2023/10/13 04:49:25;;;;;;;;;;;;;;;14.63;100.00;100754.28;4222960;28;20022;-75
2023/10/13 04:51:58;;;;;;;;;;;;;;;14.64;100.00;100750.50;4221845;28;20711;-74
2023/10/13 04:54:10;;;;;;;;;;;;;;;14.65;100.00;100750.28;4222334;28;20050;-74
2023/10/13 04:59:15;;;;;;;;;;;;;;;14.67;100.00;100744.66;4221665;28;20018;-74
2023/10/13 05:01:49;;;;;;;;;;;;;;;14.67;100.00;100742.81;4234701;27;20019;-73
2023/10/13 05:04:08;;;;;;;;;;;;;;;14.70;100.00;100736.97;4205582;28;20627;-73
2023/10/13 05:44:33;;;;;;;;;;;;;;;14.69;100.00;100737.97;4221951;28;19967;-72
2023/10/13 05:49:07;;;;;;;;;;;;;;;14.78;100.00;100742.19;4236258;27;21019;-74
2023/10/13 06:28:53;;;;;;;;;;;;;;;14.99;100.00;100713.16;4197269;28;20010;-73
2023/10/13 06:30:56;;;;;;;;;;;;;;;15.00;100.00;100717.56;4217928;28;20039;-73
2023/10/13 06:32:58;;;;;;;;;;;;;;;15.02;100.00;100729.06;4221755;28;19959;-73
2023/10/13 06:35:06;;;;;;;;;;;;;;;15.04;100.00;100729.69;4221273;28;19959;-73
2023/10/13 06:37:22;;;;;;;;;;;;;;;15.04;100.00;100726.97;4221032;28;20011;-73
2023/10/13 06:39:35;;;;;;;;;;;;;;;15.06;100.00;100724.91;4220769;28;20022;-73
2023/10/13 06:41:40;;;;;;;;;;;;;;;15.07;100.00;100739.34;4220912;28;20042;-73
2023/10/13 06:43:58;;;;;;;;;;;;;;;15.07;100.00;100733.91;4219582;28;19975;-73
2023/10/13 06:46:01;;;;;;;;;;;;;;;15.08;100.00;100732.84;4221165;28;20397;-73
2023/10/13 06:48:04;;;;;;;;;;;;;;;15.09;100.00;100729.94;4217436;28;19928;-73
2023/10/13 06:50:15;;;;;;;;;;;;;;;15.11;100.00;100721.56;4218097;28;20036;-73
2023/10/13 06:52:17;;;;;;;;;;;;;;;15.11;100.00;100725.13;4217996;28;20031;-73
2023/10/13 06:54:19;;;;;;;;;;;;;;;15.14;100.00;100721.97;4217236;28;20026;-73
2023/10/13 06:56:27;;;;;;;;;;;;;;;15.15;100.00;100720.09;4217402;28;19951;-73
2023/10/13 06:58:30;;;;;;;;;;;;;;;15.18;100.00;100719.66;4218732;28;20380;-73
2023/10/13 07:00:34;;;;;;;;;;;;;;;15.20;100.00;100717.56;4219788;28;19971;-73
2023/10/13 07:02:36;;;;;;;;;;;;;;;15.21;100.00;100719.25;4220697;28;20372;-74
2023/10/13 07:04:39;;;;;;;;;;;;;;;15.23;100.00;100714.44;4220240;28;20022;-73
2023/10/13 07:06:48;;;;;;;;;;;;;;;15.25;100.00;100720.53;4220498;28;20023;-73
2023/10/13 07:08:52;;;;;;;;;;;;;;;15.29;100.00;100718.22;4219948;28;19928;-72
2023/10/13 07:11:05;;;;;;;;;;;;;;;15.29;100.00;100708.16;4219983;28;20018;-73
2023/10/13 07:13:08;;;;;;;;;;;;;;;15.32;100.00;100717.81;4220762;28;20019;-73
2023/10/13 07:15:19;;;;;;;;;;;;;;;15.35;100.00;100716.56;4220191;28;20006;-73
2023/10/13 07:17:25;;;;;;;;;;;;;;;15.37;100.00;100715.28;4220118;28;20034;-73
2023/10/13 07:19:29;;;;;;;;;;;;;;;15.39;100.00;100715.94;4220550;28;20059;-73
2023/10/13 07:21:31;;;;;;;;;;;;;;;15.41;100.00;100702.94;4220432;28;20592;-74
2023/10/13 07:23:35;;;;;;;;;;;;;;;15.42;100.00;100699.19;4219291;28;20038;-74
2023/10/13 07:25:40;;;;;;;;;;;;;;;15.45;100.00;100700.63;4219265;28;20031;-73
2023/10/13 07:27:43;;;;;;;;;;;;;;;15.48;100.00;100701.03;4219762;28;20026;-73
2023/10/13 07:29:49;;;;;;;;;;;;;;;15.50;100.00;100698.09;4219777;28;20399;-73
2023/10/13 07:31:51;;;;;;;;;;;;;;;15.52;100.00;100701.47;4219501;28;20024;-73
2023/10/13 07:34:05;;;;;;;;;;;;;;;15.52;100.00;100701.47;4220270;28;20027;-73
2023/10/13 07:36:17;;;;;;;;;;;;;;;15.54;100.00;100699.38;4218575;28;20401;-73
2023/10/13 07:38:21;;;;;;;;;;;;;;;15.56;100.00;100699.16;4235242;27;20022;-72
2023/10/13 07:40:39;;;;;;;;;;;;;;;15.56;100.00;100694.53;4220144;28;20035;-73
2023/10/13 07:42:43;;;;;;;;;;;;;;;15.58;100.00;100691.59;4220346;28;20403;-73
2023/10/13 07:44:46;;;;;;;;;;;;;;;15.60;100.00;100692.25;4219133;28;20027;-73
2023/10/13 07:46:58;;;;;;;;;;;;;;;15.60;100.00;100687.63;4219961;28;20437;-73
2023/10/13 07:49:09;;;;;;;;;;;;;;;15.62;100.00;100690.97;4220084;28;20398;-75
2023/10/13 07:51:15;;;;;;;;;;;;;;;15.63;100.00;100672.78;4220101;28;20030;-74
2023/10/13 07:53:22;;;;;;;;;;;;;;;15.66;100.00;100677.78;4220356;28;20038;-74
2023/10/13 07:55:24;;;;;;;;;;;;;;;15.66;100.00;100675.91;4219737;28;20476;-74
2023/10/13 07:57:29;;;;;;;;;;;;;;;15.68;100.00;100684.69;4220543;28;20031;-74
2023/10/13 07:59:31;;;;;;;;;;;;;;;15.71;100.00;100688.06;4219256;28;20372;-74
2023/10/13 08:01:34;;;;;;;;;;;;;;;15.73;100.00;100689.50;4217097;28;20022;-74
2023/10/13 08:03:46;;;;;;;;;;;;;;;15.75;100.00;100678.38;4219908;28;20022;-74
2023/10/13 08:05:58;;;;;;;;;;;;;;;15.77;100.00;100681.78;4218882;28;20018;-74
2023/10/13 08:08:00;;;;;;;;;;;;;;;15.78;100.00;100681.56;4218600;28;19983;-74
2023/10/13 08:10:04;;;;;;;;;;;;;;;15.79;100.00;100668.78;4219706;28;20811;-74
2023/10/13 08:12:10;;;;;;;;;;;;;;;15.82;100.00;100668.34;4219961;28;19932;-73
2023/10/13 08:14:22;;;;;;;;;;;;;;;15.85;100.00;100668.75;4219493;28;20026;-73
2023/10/13 08:16:29;;;;;;;;;;;;;;;15.87;100.00;100665.00;4219346;28;20441;-74
2023/10/13 08:18:33;;;;;;;;;;;;;;;15.88;100.00;100655.75;4219843;28;20024;-73
2023/10/13 08:20:41;;;;;;;;;;;;;;;15.89;100.00;100657.44;4219723;28;20027;-74
2023/10/13 08:22:47;;;;;;;;;;;;;;;15.88;100.00;100651.16;4234513;28;20035;-73
2023/10/13 08:24:55;;;;;;;;;;;;;;;15.91;100.00;100658.91;4219639;28;20018;-74
2023/10/13 08:27:15;;;;;;;;;;;;;;;15.97;100.00;100659.91;4219270;28;20101;-73
2023/10/13 08:31:41;;;;;;;;;;;;;;;15.99;100.00;100652.38;4218625;28;20589;-73
2023/10/13 08:33:46;;;;;;;;;;;;;;;16.03;100.00;100659.06;4219503;28;20382;-73
2023/10/13 08:38:13;;;;;;;;;;;;;;;16.07;100.00;100656.75;4205759;28;20015;-73
2023/10/13 08:40:42;;;;;;;;;;;;;;;16.09;100.00;100651.94;4218653;28;20007;-73
2023/10/13 08:43:09;;;;;;;;;;;;;;;16.10;100.00;100651.72;4219961;28;20463;-75
2023/10/13 08:45:20;;;;;;;;;;;;;;;16.11;100.00;100645.22;4218612;28;19955;-74
2023/10/13 08:47:25;;;;;;;;;;;;;;;16.12;100.00;100641.44;4219373;28;20015;-74
2023/10/13 08:49:29;;;;;;;;;;;;;;;16.12;100.00;100630.53;4218931;28;19955;-74
2023/10/13 08:51:43;;;;;;;;;;;;;;;16.14;100.00;100633.88;4220406;28;20014;-74
2023/10/13 08:53:51;;;;;;;;;;;;;;;16.14;100.00;100627.59;4221980;28;20401;-73
2023/10/13 08:56:04;;;;;;;;;;;;;;;16.16;100.00;100629.06;4222243;28;20027;-73
2023/10/13 08:58:13;;;;;;;;;;;;;;;16.19;100.00;100625.03;4222858;28;20027;-73
2023/10/13 09:00:28;;;;;;;;;;;;;;;16.21;100.00;100622.97;4221260;28;20031;-74
2023/10/13 09:04:59;;;;;;;;;;;;;;;16.25;100.00;100616.00;4221738;28;20458;-73
2023/10/13 09:07:09;;;;;;;;;;;;;;;16.26;100.00;100614.94;4220675;28;20015;-73
2023/10/13 09:09:26;;;;;;;;;;;;;;;16.29;100.00;100614.53;4221410;28;20018;-73
2023/10/13 09:11:37;;;;;;;;;;;;;;;16.31;100.00;100606.94;4219860;28;20366;-73
2023/10/13 09:13:46;;;;;;;;;;;;;;;16.31;100.00;100598.78;4222239;28;20018;-74
2023/10/13 09:16:02;;;;;;;;;;;;;;;16.33;100.00;100612.19;4220742;28;20022;-73
2023/10/13 09:18:15;;;;;;;;;;;;;;;16.34;100.00;100606.50;4220763;28;20027;-74
2023/10/13 09:20:24;;;;;;;;;;;;;;;16.35;100.00;100608.19;4221494;28;20018;-73
2023/10/13 09:22:35;;;;;;;;;;;;;;;16.35;100.00;100602.75;4222015;28;20369;-73
2023/10/13 09:24:36;;;;;;;;;;;;;;;16.39;100.00;100603.13;4221938;28;20454;-73
2023/10/13 09:26:44;;;;;;;;;;;;;;;16.39;100.00;100595.81;4221859;28;20022;-73
2023/10/13 09:28:53;;;;;;;;;;;;;;;16.40;100.00;100597.47;4221080;28;20019;-72
2023/10/13 09:30:58;;;;;;;;;;;;;;;16.41;100.00;100592.88;4221432;28;20703;-74
2023/10/13 09:33:01;;;;;;;;;;;;;;;16.42;100.00;100593.69;4222143;28;20018;-74
2023/10/13 09:35:07;;;;;;;;;;;;;;;16.43;100.00;100588.03;4221290;28;20485;-73
2023/10/13 09:37:17;;;;;;;;;;;;;;;16.46;100.00;100589.50;4220518;28;19928;-73
2023/10/13 09:39:29;;;;;;;;;;;;;;;16.48;100.00;100579.19;4222585;28;20027;-73
2023/10/13 09:41:32;;;;;;;;;;;;;;;16.46;100.00;100582.13;4220702;28;20461;-74
2023/10/13 09:43:37;;;;;;;;;;;;;;;16.45;100.00;100577.72;4222264;28;20023;-73
2023/10/13 09:45:40;;;;;;;;;;;;;;;16.48;100.00;100568.28;4222176;28;20014;-74
2023/10/13 09:47:52;;;;;;;;;;;;;;;16.46;100.00;100562.22;4221925;28;19928;-74
2023/10/13 09:49:57;;;;;;;;;;;;;;;16.47;100.00;100561.97;4221846;28;20035;-73
2023/10/13 09:52:04;;;;;;;;;;;;;;;16.49;100.00;100559.03;4221950;28;19924;-74
2023/10/13 09:54:09;;;;;;;;;;;;;;;16.49;100.00;100550.84;4221483;28;20026;-74
2023/10/13 09:56:19;;;;;;;;;;;;;;;16.51;100.00;100546.88;4220667;28;20019;-74
2023/10/13 09:58:28;;;;;;;;;;;;;;;16.50;100.00;100539.72;4222359;28;20026;-74
2023/10/13 10:00:46;;;;;;;;;;;;;;;16.51;100.00;100541.41;4222143;28;20437;-73
2023/10/13 10:02:51;;;;;;;;;;;;;;;16.52;100.00;100528.59;4220909;28;20018;-73
2023/10/13 10:04:55;;;;;;;;;;;;;;;16.55;100.00;100526.28;4221323;28;19974;-73
2023/10/13 10:06:57;;;;;;;;;;;;;;;16.55;100.00;100528.16;4220743;27;20019;-73
2023/10/13 10:09:11;;;;;;;;;;;;;;;16.55;100.00;100525.44;4220373;28;20026;-74
2023/10/13 10:11:40;;;;;;;;;;;;;;;16.57;100.00;100517.91;4221321;28;20453;-73
2023/10/13 10:13:45;;;;;;;;;;;;;;;16.57;100.00;100518.72;4201497;28;19924;-73
2023/10/13 10:15:47;;;;;;;;;;;;;;;16.58;100.00;100509.50;4220907;28;20022;-74
2023/10/13 10:17:54;;;;;;;;;;;;;;;16.62;100.00;100509.88;4221592;28;20301;-72
2023/10/13 10:19:56;;;;;;;;;;;;;;;16.62;100.00;100522.69;4221865;28;19931;-72
2023/10/13 10:22:10;;;;;;;;;;;;;;;16.65;100.00;100516.78;4221569;28;20026;-72
2023/10/13 10:24:24;;;;;;;;;;;;;;;16.66;100.00;100526.63;4220904;28;19962;-73
2023/10/13 10:26:32;;;;;;;;;;;;;;;16.66;100.00;100511.09;4220445;28;20014;-74
2023/10/13 10:28:38;;;;;;;;;;;;;;;16.66;100.00;100510.25;4221095;28;20014;-73
2023/10/13 10:30:42;;;;;;;;;;;;;;;16.68;100.00;100522.63;4219706;28;20374;-73
2023/10/13 10:32:48;;;;;;;;;;;;;;;16.69;100.00;100516.13;4219076;28;20039;-74
2023/10/13 10:34:50;;;;;;;;;;;;;;;16.72;100.00;100512.09;4220975;28;20435;-72
2023/10/13 10:36:54;;;;;;;;;;;;;;;16.71;100.00;100502.25;4220619;28;20022;-73
2023/10/13 10:38:59;;;;;;;;;;;;;;;16.72;100.00;100501.19;4219910;28;20018;-73
2023/10/13 10:41:03;;;;;;;;;;;;;;;16.72;100.00;100510.22;4220792;28;19936;-73
2023/10/13 10:43:08;;;;;;;;;;;;;;;16.70;100.00;100508.75;4220985;27;20019;-74
2023/10/13 10:45:11;;;;;;;;;;;;;;;16.74;100.00;100501.81;4221711;28;20019;-73
2023/10/13 10:47:19;;;;;;;;;;;;;;;16.75;100.00;100498.00;4219952;28;20015;-73
2023/10/13 10:49:27;;;;;;;;;;;;;;;16.74;100.00;100493.63;4221139;28;20014;-73
2023/10/13 10:51:31;;;;;;;;;;;;;;;16.79;100.00;100499.25;4220544;28;20019;-74
2023/10/13 10:53:43;;;;;;;;;;;;;;;16.80;100.00;100495.44;4218202;28;19924;-74
2023/10/13 10:55:45;;;;;;;;;;;;;;;16.80;100.00;100486.44;4220862;28;20468;-73
2023/10/13 10:57:48;;;;;;;;;;;;;;;16.82;100.00;100493.34;4220700;28;20010;-74
2023/10/13 11:00:09;;;;;;;;;;;;;;;16.82;100.00;100487.03;4221616;28;20007;-73
2023/10/13 11:02:27;;;;;;;;;;;;;;;16.81;100.00;100475.28;4221796;28;19924;-73
2023/10/13 11:04:33;;;;;;;;;;;;;;;16.83;100.00;100462.25;4219611;28;20381;-73
2023/10/13 11:06:41;;;;;;;;;;;;;;;16.84;100.00;100463.13;4219505;28;20031;-74
2023/10/13 11:08:51;;;;;;;;;;;;;;;16.85;100.00;100449.25;4202183;28;19928;-73
2023/10/13 11:10:52;;;;;;;;;;;;;;;16.85;100.00;100456.56;4221403;28;20014;-73
2023/10/13 11:13:11;;;;;;;;;;;;;;;16.86;100.00;100456.38;4221180;28;19940;-75
2023/10/13 11:15:14;;;;;;;;;;;;;;;16.86;100.00;100450.94;4220759;28;20471;-73
2023/10/13 11:17:24;;;;;;;;;;;;;;;16.85;100.00;100437.50;4233704;27;20018;-73
2023/10/13 11:19:34;;;;;;;;;;;;;;;16.87;100.00;100430.78;4221529;28;20019;-72
2023/10/13 11:21:37;;;;;;;;;;;;;;;16.89;100.00;100455.94;4218985;28;20015;-72
2023/10/13 11:23:39;;;;;;;;;;;;;;;16.90;100.00;100432.25;4220771;28;19927;-72
2023/10/13 11:25:44;;;;;;;;;;;;;;;16.92;100.00;100427.38;4220510;28;20434;-73
2023/10/13 11:27:55;;;;;;;;;;;;;;;16.94;100.00;100427.97;4218560;28;20011;-73
2023/10/13 11:30:05;;;;;;;;;;;;;;;16.95;100.00;100421.47;4219847;28;20338;-73
2023/10/13 11:32:08;;;;;;;;;;;;;;;16.95;100.00;100420.66;4220608;28;20003;-73
2023/10/13 11:34:11;;;;;;;;;;;;;;;16.94;100.00;100422.53;4220594;28;20023;-73
2023/10/13 11:36:17;;;;;;;;;;;;;;;16.95;100.00;100428.84;4220909;28;20371;-73
2023/10/13 11:38:25;;;;;;;;;;;;;;;16.98;100.00;100418.28;4218317;28;20022;-74
2023/10/13 11:42:47;;;;;;;;;;;;;;;16.98;100.00;100412.84;4220035;28;20008;-73
2023/10/13 11:45:15;;;;;;;;;;;;;;;16.98;100.00;100404.66;4221070;28;19962;-73
2023/10/13 11:47:47;;;;;;;;;;;;;;;16.99;100.00;100410.94;4218128;28;20050;-74
2023/10/13 11:49:58;;;;;;;;;;;;;;;17.02;100.00;100416.78;4216883;28;20019;-74
2023/10/13 11:54:21;;;;;;;;;;;;;;;17.03;100.00;100393.88;4219353;28;20544;-73
2023/10/13 11:56:24;;;;;;;;;;;;;;;17.03;100.00;100407.53;4220613;28;20486;-73
2023/10/13 11:58:26;;;;;;;;;;;;;;;17.05;100.00;100402.69;4220544;28;20019;-74
2023/10/13 12:00:50;;;;;;;;;;;;;;;17.04;100.00;100392.81;4200097;28;20019;-73
2023/10/13 12:05:15;;;;;;;;;;;;;;;17.06;100.00;100382.50;4219608;28;20385;-73
2023/10/13 12:07:19;;;;;;;;;;;;;;;17.08;100.00;100394.06;4218874;28;20014;-73
2023/10/13 12:09:41;;;;;;;;;;;;;;;17.10;100.00;100381.00;4219089;28;20873;-73
2023/10/13 12:11:44;;;;;;;;;;;;;;;17.09;100.00;100373.03;4218177;28;20027;-74
2023/10/13 12:13:45;;;;;;;;;;;;;;;17.14;100.00;100361.44;4219276;28;19963;-73
2023/10/13 12:15:51;;;;;;;;;;;;;;;17.13;100.00;100363.31;4218694;28;19928;-73
2023/10/13 12:17:57;;;;;;;;;;;;;;;17.16;100.00;100367.50;4219550;28;20018;-73
2023/10/13 12:19:59;;;;;;;;;;;;;;;17.17;100.00;100369.19;4219405;28;20010;-73
2023/10/13 12:22:08;;;;;;;;;;;;;;;17.20;100.00;100360.53;4219622;28;20031;-72
2023/10/13 12:24:21;;;;;;;;;;;;;;;17.20;100.00;100357.81;4220569;28;20430;-73
2023/10/13 12:26:32;;;;;;;;;;;;;;;17.19;100.00;100354.22;4220255;28;20362;-73
2023/10/13 12:28:40;;;;;;;;;;;;;;;17.22;100.00;100351.03;4219908;28;20023;-73
2023/10/13 12:30:50;;;;;;;;;;;;;;;17.22;100.00;100345.56;4221567;28;20016;-73
2023/10/13 12:32:58;;;;;;;;;;;;;;;17.23;100.00;100343.69;4223236;28;20050;-73
2023/10/13 12:35:17;;;;;;;;;;;;;;;17.24;100.00;100339.88;4223494;28;20485;-73
2023/10/13 12:37:38;;;;;;;;;;;;;;;17.28;100.00;100330.19;4223212;28;20023;-72